Promised Land, New York
Current Conditions -  °F | °C
As of 7:56 PM on Saturday 25 Oct 2014 (Local Time) from KGON Reporting Station
Broken Clouds Broken Clouds  
Wind Chill: 59°   Ceiling: 9500
Heat Index: 59°   Visibility: 10mi
Dew Point: 48°   Wind: 13mph
Humidity: 67%   Direction: 240°WSW
Pressure: 29.62"   Gusts: NA
Location:  40.9764°N, 72.1316°W
Report Text: KGON 252356Z 24011KT 10SM BKN095 15/09 A2962 RMK AO2 SLP029 T01500089 10161 20144 56007
Loading
Personal Weather Stations






























Interactive Weather Map New forecast layout! Learn more

10-Day Weather Forecast

Advertisements
Track Severe Weather on mobile